createdAt,value
2019-03-12T00:02:01.281Z,21.60
2019-03-12T00:04:28.430Z,21.60
2019-03-12T00:06:55.592Z,21.60
2019-03-12T00:09:22.385Z,21.50
2019-03-12T00:11:49.122Z,21.50
2019-03-12T00:14:17.553Z,21.50
2019-03-12T00:16:44.256Z,21.50
2019-03-12T00:19:11.439Z,21.50
2019-03-12T00:21:38.486Z,21.50
2019-03-12T00:24:05.644Z,21.50
2019-03-12T00:26:33.134Z,21.50
2019-03-12T00:28:59.859Z,21.50
2019-03-12T00:31:26.602Z,21.50
2019-03-12T00:33:53.699Z,21.50
2019-03-12T00:36:20.471Z,21.50
2019-03-12T00:38:47.198Z,21.50
2019-03-12T00:41:14.533Z,21.50
2019-03-12T00:43:41.257Z,21.40
2019-03-12T00:46:08.011Z,21.50
2019-03-12T00:48:34.826Z,21.50
2019-03-12T00:51:02.061Z,21.50
2019-03-12T00:53:28.766Z,21.50
2019-03-12T00:55:55.609Z,21.40
2019-03-12T00:58:23.946Z,21.40
2019-03-12T01:00:50.808Z,21.50
2019-03-12T01:03:17.531Z,21.50
2019-03-12T01:05:44.630Z,21.40
2019-03-12T01:08:11.356Z,21.40
2019-03-12T01:10:38.112Z,21.40
2019-03-12T01:13:14.341Z,21.40
2019-03-12T01:15:41.134Z,21.40
2019-03-12T01:18:08.237Z,21.40
2019-03-12T01:20:35.287Z,21.40
2019-03-12T01:23:02.464Z,21.40
2019-03-12T01:25:29.223Z,21.40
2019-03-12T01:27:55.943Z,21.40
2019-03-12T01:30:22.715Z,21.40
2019-03-12T01:32:49.446Z,21.40
2019-03-12T01:35:16.183Z,21.40
2019-03-12T01:37:42.957Z,21.40
2019-03-12T01:40:13.146Z,21.40
2019-03-12T01:42:39.893Z,21.40
2019-03-12T01:45:11.600Z,21.40
2019-03-12T01:47:38.316Z,21.40
2019-03-12T01:50:08.971Z,21.40
2019-03-12T01:52:36.015Z,21.40
2019-03-12T01:55:07.447Z,21.40
2019-03-12T01:57:34.623Z,21.40
2019-03-12T02:00:02.006Z,21.40
2019-03-12T02:02:28.852Z,21.40
2019-03-12T02:04:55.576Z,21.40
2019-03-12T02:07:22.852Z,21.40
2019-03-12T02:09:49.570Z,21.40
2019-03-12T02:12:16.334Z,21.40
2019-03-12T02:14:43.436Z,21.40
2019-03-12T02:17:10.184Z,21.40
2019-03-12T02:19:37.065Z,21.40
2019-03-12T02:22:03.825Z,21.40
2019-03-12T02:24:30.651Z,21.40
2019-03-12T02:26:59.331Z,21.40
2019-03-12T02:29:26.489Z,21.40
2019-03-12T02:31:53.611Z,21.40
2019-03-12T02:34:20.343Z,21.40
2019-03-12T02:36:47.054Z,21.40
2019-03-12T02:39:13.832Z,21.30
2019-03-12T02:41:40.721Z,21.40
2019-03-12T02:44:07.477Z,21.30
2019-03-12T02:46:34.205Z,21.40
2019-03-12T02:49:00.954Z,21.40
2019-03-12T02:51:27.682Z,21.40
2019-03-12T02:53:54.530Z,21.30
2019-03-12T02:56:21.246Z,21.40
2019-03-12T02:58:48.053Z,21.30
2019-03-12T03:01:14.780Z,21.30
2019-03-12T03:03:41.527Z,21.30
2019-03-12T03:06:10.170Z,21.30
2019-03-12T03:08:37.276Z,21.30
2019-03-12T03:11:04.005Z,21.30
2019-03-12T03:13:30.750Z,21.30
2019-03-12T03:15:57.554Z,21.30
2019-03-12T03:18:24.340Z,21.30
2019-03-12T03:20:52.106Z,21.30
2019-03-12T03:23:18.958Z,21.30
2019-03-12T03:25:45.700Z,21.30
2019-03-12T03:28:12.819Z,21.30
2019-03-12T03:30:39.550Z,21.30
2019-03-12T03:33:06.421Z,21.30
2019-03-12T03:35:33.245Z,21.30
2019-03-12T03:38:00.126Z,21.30
2019-03-12T03:40:27.001Z,21.30
2019-03-12T03:42:53.725Z,21.30
2019-03-12T03:45:20.467Z,21.30
2019-03-12T03:47:47.247Z,21.30
2019-03-12T03:50:16.205Z,21.30
2019-03-12T03:52:42.926Z,21.30
2019-03-12T03:55:18.498Z,21.30
2019-03-12T03:57:45.708Z,21.30
2019-03-12T04:00:16.867Z,21.30
2019-03-12T04:02:43.707Z,21.30
2019-03-12T04:05:10.549Z,21.30
2019-03-12T04:07:37.329Z,21.30
2019-03-12T04:10:09.193Z,21.30
2019-03-12T04:12:35.948Z,21.30
2019-03-12T04:15:04.451Z,21.30
2019-03-12T04:17:31.577Z,21.30
2019-03-12T04:19:58.325Z,21.30
2019-03-12T04:22:25.474Z,21.30
2019-03-12T04:24:52.717Z,21.30
2019-03-12T04:27:19.800Z,21.30
2019-03-12T04:29:46.557Z,21.30
2019-03-12T04:32:13.638Z,21.30
2019-03-12T04:34:40.648Z,21.30
2019-03-12T04:37:07.807Z,21.30
2019-03-12T04:39:34.568Z,21.30
2019-03-12T04:42:01.303Z,21.30
2019-03-12T04:44:28.459Z,21.30
2019-03-12T04:46:55.231Z,21.30
2019-03-12T04:49:21.988Z,21.30
2019-03-12T04:51:48.718Z,21.30
2019-03-12T04:54:15.454Z,21.30
2019-03-12T04:56:42.292Z,21.30
2019-03-12T04:59:09.028Z,21.30
2019-03-12T05:01:36.173Z,21.30
2019-03-12T05:04:03.205Z,21.30
2019-03-12T05:06:30.265Z,21.30
2019-03-12T05:08:57.017Z,21.30
2019-03-12T05:11:23.743Z,21.30
2019-03-12T05:14:20.636Z,21.30
2019-03-12T05:16:47.476Z,21.30
2019-03-12T05:19:14.794Z,21.30
2019-03-12T05:21:44.889Z,21.30
2019-03-12T05:24:10.598Z,21.30
2019-03-12T05:26:37.544Z,21.40
2019-03-12T05:29:04.628Z,21.40
2019-03-12T05:31:31.510Z,21.40
2019-03-12T05:33:58.715Z,21.40
2019-03-12T05:36:25.490Z,21.50
2019-03-12T05:38:55.068Z,21.60
2019-03-12T05:41:22.593Z,21.60
2019-03-12T05:43:49.309Z,21.60
2019-03-12T05:46:16.087Z,21.70
2019-03-12T05:48:42.886Z,21.70
2019-03-12T05:51:09.652Z,21.80
2019-03-12T05:53:49.988Z,21.80
2019-03-12T05:56:17.100Z,21.80
2019-03-12T05:58:44.154Z,21.90
2019-03-12T06:01:11.033Z,21.90
2019-03-12T06:03:37.762Z,21.90
2019-03-12T06:06:04.517Z,21.90
2019-03-12T06:08:31.350Z,22.00
2019-03-12T06:10:58.097Z,22.00
2019-03-12T06:13:24.821Z,22.00
2019-03-12T06:15:53.268Z,22.10
2019-03-12T06:18:20.148Z,22.00
2019-03-12T06:20:46.921Z,22.10
2019-03-12T06:23:15.226Z,22.10
2019-03-12T06:25:42.450Z,22.10
2019-03-12T06:28:09.207Z,22.20
2019-03-12T06:30:37.989Z,22.20
2019-03-12T06:33:06.616Z,22.20
2019-03-12T06:35:47.274Z,22.20
2019-03-12T06:38:15.882Z,22.20
2019-03-12T06:40:56.789Z,22.20
2019-03-12T06:43:34.092Z,22.20
2019-03-12T06:46:07.970Z,22.20
2019-03-12T06:48:52.170Z,22.30
2019-03-12T06:51:33.983Z,22.30
2019-03-12T06:54:03.578Z,22.30
2019-03-12T06:56:47.220Z,22.30
2019-03-12T06:59:30.858Z,22.30
2019-03-12T07:02:02.407Z,22.30
2019-03-12T07:04:49.713Z,22.30
2019-03-12T07:07:21.444Z,22.30
2019-03-12T07:10:00.383Z,22.30
2019-03-12T07:12:27.306Z,22.30
2019-03-12T07:15:04.995Z,22.30
2019-03-12T07:17:48.594Z,22.30
2019-03-12T07:20:15.408Z,22.30
2019-03-12T07:22:56.623Z,22.30
2019-03-12T07:25:38.352Z,22.30
2019-03-12T07:28:05.468Z,22.40
2019-03-12T07:30:36.953Z,22.40
2019-03-12T07:33:14.576Z,22.40
2019-03-12T07:35:49.212Z,22.40
2019-03-12T07:38:22.154Z,22.40
2019-03-12T07:41:05.716Z,22.40
2019-03-12T07:43:33.091Z,22.40
2019-03-12T07:46:01.737Z,22.50
2019-03-12T07:48:32.997Z,22.50
2019-03-12T07:51:01.676Z,22.50
2019-03-12T07:53:36.594Z,22.50
2019-03-12T07:56:22.053Z,22.50
2019-03-12T07:58:51.123Z,22.50
2019-03-12T08:01:28.740Z,22.60
2019-03-12T08:04:01.165Z,22.60
2019-03-12T08:06:32.741Z,22.60
2019-03-12T08:09:01.518Z,22.60
2019-03-12T08:11:32.755Z,22.70
2019-03-12T08:14:01.453Z,22.70
2019-03-12T08:16:32.702Z,22.70
2019-03-12T08:19:18.152Z,22.80
2019-03-12T08:22:02.269Z,22.90
2019-03-12T08:24:46.377Z,22.90
2019-03-12T08:27:15.449Z,22.90
2019-03-12T08:29:45.402Z,23.00
2019-03-12T08:32:12.180Z,23.10
2019-03-12T08:34:50.604Z,23.10
2019-03-12T08:37:19.541Z,23.20
2019-03-12T08:40:01.562Z,23.20
2019-03-12T08:42:53.993Z,23.30
2019-03-12T08:45:28.688Z,23.30
2019-03-12T08:47:57.409Z,23.40
2019-03-12T08:50:39.504Z,23.50
2019-03-12T08:53:08.912Z,23.50
2019-03-12T08:55:50.614Z,23.50
2019-03-12T08:58:21.875Z,23.60
2019-03-12T09:00:50.514Z,23.60
2019-03-12T09:03:35.474Z,23.70
2019-03-12T09:06:10.257Z,23.70
2019-03-12T09:08:38.958Z,23.80
2019-03-12T09:11:11.858Z,23.80
2019-03-12T09:13:46.258Z,23.90
2019-03-12T09:16:15.243Z,23.90
2019-03-12T09:18:51.318Z,23.90
2019-03-12T09:21:18.055Z,24.00
2019-03-12T09:23:46.831Z,24.00
2019-03-12T09:26:13.574Z,24.00
2019-03-12T09:28:42.403Z,24.00
2019-03-12T09:31:20.447Z,24.10
2019-03-12T09:34:04.145Z,24.10
2019-03-12T09:36:51.353Z,24.10
2019-03-12T09:39:22.708Z,24.10
2019-03-12T09:42:08.622Z,24.10
2019-03-12T09:44:41.042Z,24.10
2019-03-12T09:47:08.167Z,24.10
2019-03-12T09:49:35.226Z,24.10
2019-03-12T09:52:10.074Z,24.00
2019-03-12T09:54:39.723Z,24.00
2019-03-12T09:57:11.046Z,24.00
2019-03-12T09:59:56.918Z,24.00
2019-03-12T10:02:25.979Z,24.00
2019-03-12T10:05:09.597Z,24.00
2019-03-12T10:07:54.727Z,24.00
2019-03-12T10:10:36.383Z,24.00
2019-03-12T10:13:16.977Z,23.90
2019-03-12T10:15:46.651Z,24.00
2019-03-12T10:18:19.666Z,23.90
2019-03-12T10:20:51.173Z,24.00
2019-03-12T10:23:36.560Z,23.90
2019-03-12T10:26:12.054Z,23.90
2019-03-12T10:28:39.242Z,24.00
2019-03-12T10:31:26.411Z,24.00
2019-03-12T10:34:11.723Z,24.00
2019-03-12T10:36:49.138Z,24.00
2019-03-12T10:39:54.221Z,24.00
2019-03-12T10:42:36.164Z,24.00
2019-03-12T10:45:12.094Z,24.00
2019-03-12T10:47:40.814Z,24.00
2019-03-12T10:50:08.769Z,24.00
2019-03-12T10:52:35.485Z,24.10
2019-03-12T10:55:13.122Z,24.00
2019-03-12T10:57:33.773Z,24.00
2019-03-12T11:00:06.726Z,24.00
2019-03-12T11:02:33.952Z,24.00
2019-03-12T11:05:00.719Z,24.00
2019-03-12T11:07:27.779Z,24.00
2019-03-12T11:09:54.555Z,24.00
2019-03-12T11:12:22.089Z,24.00
2019-03-12T11:14:49.164Z,24.00
2019-03-12T11:17:15.956Z,24.00
2019-03-12T11:19:42.681Z,23.90
2019-03-12T11:22:09.449Z,23.90
2019-03-12T11:24:37.074Z,23.90
2019-03-12T11:27:04.248Z,23.90
2019-03-12T11:29:30.987Z,23.90
2019-03-12T11:31:58.064Z,23.80
2019-03-12T11:34:24.898Z,23.90
2019-03-12T11:36:51.787Z,23.80
2019-03-12T11:39:18.587Z,23.80
2019-03-12T11:41:45.438Z,23.80
2019-03-12T11:44:12.294Z,23.80
2019-03-12T11:46:44.333Z,23.80
2019-03-12T11:49:07.737Z,23.80
2019-03-12T11:51:34.637Z,23.80
2019-03-12T11:54:01.473Z,23.90
2019-03-12T11:56:28.339Z,23.90
2019-03-12T11:58:55.156Z,23.80
2019-03-12T12:01:22.443Z,23.90
2019-03-12T12:03:49.164Z,23.90
2019-03-12T12:06:16.058Z,23.90
2019-03-12T12:08:42.882Z,23.90
2019-03-12T12:11:09.827Z,23.90
2019-03-12T12:13:36.609Z,23.90
2019-03-12T12:16:03.452Z,23.90
2019-03-12T12:18:30.157Z,23.80
2019-03-12T12:20:57.189Z,23.80
2019-03-12T12:23:24.242Z,23.80
2019-03-12T12:25:51.356Z,23.80
2019-03-12T12:28:18.231Z,23.80
2019-03-12T12:30:44.987Z,23.80
2019-03-12T12:33:11.682Z,23.80
2019-03-12T12:35:38.465Z,23.80
2019-03-12T12:38:05.207Z,23.80
2019-03-12T12:40:31.923Z,23.70
2019-03-12T12:42:58.869Z,23.80
2019-03-12T12:45:32.604Z,23.70
2019-03-12T12:47:59.744Z,23.70
2019-03-12T12:50:26.466Z,23.70
2019-03-12T12:52:53.224Z,23.70
2019-03-12T12:55:20.047Z,23.70
2019-03-12T12:57:46.783Z,23.70
2019-03-12T13:00:23.458Z,23.70
2019-03-12T13:02:50.196Z,23.60
2019-03-12T13:05:17.235Z,23.70
2019-03-12T13:07:44.039Z,23.70
2019-03-12T13:10:25.884Z,23.60
2019-03-12T13:12:53.020Z,23.70
2019-03-12T13:15:20.048Z,23.70
2019-03-12T13:17:46.826Z,23.60
2019-03-12T13:20:13.690Z,23.60
2019-03-12T13:22:40.899Z,23.70
2019-03-12T13:25:13.973Z,23.70
2019-03-12T13:27:42.446Z,23.60
2019-03-12T13:30:20.934Z,23.70
2019-03-12T13:32:47.781Z,23.70
2019-03-12T13:35:16.014Z,23.70
2019-03-12T13:37:43.056Z,23.70
2019-03-12T13:40:15.743Z,23.70
2019-03-12T13:42:42.915Z,23.70
2019-03-12T13:45:17.645Z,23.60
2019-03-12T13:47:45.362Z,23.70
2019-03-12T13:50:12.958Z,23.70
2019-03-12T13:52:39.690Z,23.60
2019-03-12T13:55:12.693Z,23.60
2019-03-12T13:57:39.928Z,23.60
2019-03-12T14:00:25.253Z,23.60
2019-03-12T14:02:52.436Z,23.60
2019-03-12T14:05:19.189Z,23.60
2019-03-12T14:07:45.968Z,23.60
2019-03-12T14:10:23.430Z,23.60
2019-03-12T14:12:57.905Z,23.60
2019-03-12T14:15:32.851Z,23.70
2019-03-12T14:17:59.914Z,23.70
2019-03-12T14:20:51.691Z,23.60
2019-03-12T14:23:40.847Z,23.70
2019-03-12T14:26:07.602Z,23.70
2019-03-12T14:28:34.414Z,23.70
2019-03-12T14:31:01.555Z,23.70
2019-03-12T14:33:28.730Z,23.70
2019-03-12T14:35:55.463Z,23.70
2019-03-12T14:38:22.189Z,23.70
2019-03-12T14:40:48.915Z,23.70
2019-03-12T14:43:16.018Z,23.70
2019-03-12T14:45:49.324Z,23.70
2019-03-12T14:48:43.044Z,23.60
2019-03-12T14:51:24.434Z,23.60
2019-03-12T14:53:56.189Z,23.60
2019-03-12T14:56:26.814Z,23.60
2019-03-12T14:58:53.543Z,23.60
2019-03-12T15:01:20.271Z,23.60
2019-03-12T15:03:46.995Z,23.60
2019-03-12T15:06:14.060Z,23.60
2019-03-12T15:08:40.878Z,23.60
2019-03-12T15:11:07.584Z,23.60
2019-03-12T15:13:34.367Z,23.60
2019-03-12T15:16:01.098Z,23.60
2019-03-12T15:18:28.331Z,23.60
2019-03-12T15:20:55.197Z,23.60
2019-03-12T15:23:22.065Z,23.60
2019-03-12T15:25:48.783Z,23.50
2019-03-12T15:28:15.749Z,23.60
2019-03-12T15:30:42.456Z,23.50
2019-03-12T15:33:09.631Z,23.60
2019-03-12T15:35:37.003Z,23.50
2019-03-12T15:38:04.763Z,23.60
2019-03-12T15:40:32.927Z,23.60
2019-03-12T15:42:59.646Z,23.60
2019-03-12T15:45:26.359Z,23.60
2019-03-12T15:47:53.138Z,23.50
2019-03-12T15:50:21.581Z,23.60
2019-03-12T15:52:48.492Z,23.60
2019-03-12T15:55:15.293Z,23.50
2019-03-12T15:57:42.154Z,23.50
2019-03-12T16:00:14.881Z,23.40
2019-03-12T16:02:41.632Z,23.40
2019-03-12T16:05:08.522Z,23.40
2019-03-12T16:07:35.274Z,23.50
2019-03-12T16:10:06.014Z,23.40
2019-03-12T16:12:33.985Z,23.50
2019-03-12T16:15:00.948Z,23.40
2019-03-12T16:17:29.933Z,23.50
2019-03-12T16:19:57.728Z,23.40
2019-03-12T16:22:24.646Z,23.50
2019-03-12T16:24:54.025Z,23.40
2019-03-12T16:27:21.995Z,23.50
2019-03-12T16:29:48.977Z,23.40
2019-03-12T16:32:16.893Z,23.40
2019-03-12T16:34:43.716Z,23.40
2019-03-12T16:37:10.704Z,23.40
2019-03-12T16:39:37.685Z,23.40
2019-03-12T16:42:05.561Z,23.40
2019-03-12T16:44:33.454Z,23.40
2019-03-12T16:47:00.553Z,23.40
2019-03-12T16:49:27.560Z,23.40
2019-03-12T16:51:54.330Z,23.40
2019-03-12T16:54:21.445Z,23.40
2019-03-12T16:56:48.169Z,23.40
2019-03-12T16:59:14.928Z,23.40
2019-03-12T17:01:41.663Z,23.40
2019-03-12T17:04:08.487Z,23.30
2019-03-12T17:06:35.825Z,23.30
2019-03-12T17:09:04.235Z,23.30
2019-03-12T17:11:31.461Z,23.30
2019-03-12T17:13:58.367Z,23.30
2019-03-12T17:16:25.419Z,23.30
2019-03-12T17:18:52.377Z,23.30
2019-03-12T17:21:19.668Z,23.30
2019-03-12T17:23:46.731Z,23.30
2019-03-12T17:26:14.019Z,23.30
2019-03-12T17:28:40.769Z,23.30
2019-03-12T17:31:07.508Z,23.30
2019-03-12T17:33:34.609Z,23.20
2019-03-12T17:36:01.417Z,23.20
2019-03-12T17:38:28.167Z,23.20
2019-03-12T17:40:55.114Z,23.20
2019-03-12T17:43:21.884Z,23.20
2019-03-12T17:45:49.003Z,23.20
2019-03-12T17:48:15.754Z,23.20
2019-03-12T17:50:42.484Z,23.10
2019-03-12T17:53:09.214Z,23.10
2019-03-12T17:55:36.536Z,23.10
2019-03-12T17:58:03.263Z,23.10
2019-03-12T18:00:35.102Z,23.10
2019-03-12T18:03:02.325Z,23.00
2019-03-12T18:05:29.222Z,23.00
2019-03-12T18:07:56.345Z,23.00
2019-03-12T18:10:23.286Z,23.00
2019-03-12T18:12:50.127Z,22.90
2019-03-12T18:15:19.542Z,22.90
2019-03-12T18:17:46.813Z,22.90
2019-03-12T18:20:20.459Z,22.80
2019-03-12T18:22:47.236Z,22.80
2019-03-12T18:25:33.544Z,22.80
2019-03-12T18:28:00.289Z,22.80
2019-03-12T18:30:27.042Z,22.70
2019-03-12T18:32:55.005Z,22.70
2019-03-12T18:35:21.719Z,22.70
2019-03-12T18:37:48.521Z,22.70
2019-03-12T18:40:18.294Z,22.70
2019-03-12T18:42:45.332Z,22.70
2019-03-12T18:45:20.865Z,22.60
2019-03-12T18:47:47.775Z,22.60
2019-03-12T18:50:17.172Z,22.60
2019-03-12T18:52:44.174Z,22.60
2019-03-12T18:55:37.775Z,22.60
2019-03-12T18:58:08.318Z,22.50
2019-03-12T19:00:38.339Z,22.50
2019-03-12T19:03:05.496Z,22.50
2019-03-12T19:05:32.433Z,22.50
2019-03-12T19:07:59.148Z,22.50
2019-03-12T19:10:25.904Z,22.40
2019-03-12T19:12:52.997Z,22.40
2019-03-12T19:15:19.828Z,22.40
2019-03-12T19:17:46.677Z,22.40
2019-03-12T19:20:16.641Z,22.40
2019-03-12T19:22:44.137Z,22.30
2019-03-12T19:25:25.101Z,22.30
2019-03-12T19:27:59.778Z,22.30
2019-03-12T19:30:20.824Z,22.30
2019-03-12T19:32:56.416Z,22.30
2019-03-12T19:35:25.838Z,22.30
2019-03-12T19:37:52.592Z,22.30
2019-03-12T19:40:41.848Z,22.20
2019-03-12T19:43:08.999Z,22.20
2019-03-12T19:45:35.720Z,22.20
2019-03-12T19:48:02.587Z,22.20
2019-03-12T19:50:29.775Z,22.20
2019-03-12T19:52:56.555Z,22.20
2019-03-12T19:56:01.851Z,22.20
2019-03-12T19:58:28.854Z,22.10
2019-03-12T20:00:55.719Z,22.10
2019-03-12T20:03:22.448Z,22.10
2019-03-12T20:05:49.282Z,22.10
2019-03-12T20:08:16.026Z,22.10
2019-03-12T20:11:08.206Z,22.10
2019-03-12T20:14:23.978Z,22.10
2019-03-12T20:17:21.044Z,22.10
2019-03-12T20:20:34.790Z,22.10
2019-03-12T20:23:27.988Z,22.00
2019-03-12T20:26:52.033Z,22.00
2019-03-12T20:30:04.441Z,22.00
2019-03-12T20:32:59.841Z,22.00
2019-03-12T20:36:15.614Z,22.00
2019-03-12T20:39:31.200Z,22.00
2019-03-12T20:42:40.101Z,22.00
2019-03-12T20:45:33.411Z,22.00
2019-03-12T20:48:42.387Z,21.90
2019-03-12T20:51:49.865Z,21.90
2019-03-12T20:54:55.377Z,21.90
2019-03-12T20:58:05.568Z,21.90
2019-03-12T21:01:27.891Z,21.90
2019-03-12T21:04:49.843Z,21.80
2019-03-12T21:07:41.655Z,21.80
2019-03-12T21:10:44.190Z,21.80
2019-03-12T21:13:16.703Z,21.80
2019-03-12T21:16:07.800Z,21.80
2019-03-12T21:19:09.869Z,21.80
2019-03-12T21:22:09.279Z,21.80
2019-03-12T21:25:01.423Z,21.70
2019-03-12T21:27:55.057Z,21.70
2019-03-12T21:30:26.875Z,21.70
2019-03-12T21:32:53.608Z,21.70
2019-03-12T21:35:20.523Z,21.70
2019-03-12T21:37:47.280Z,21.70
2019-03-12T21:40:14.543Z,21.70
2019-03-12T21:42:41.885Z,21.70
2019-03-12T21:45:10.182Z,21.70
2019-03-12T21:47:36.886Z,21.60
2019-03-12T21:50:07.559Z,21.60
2019-03-12T21:52:34.882Z,21.70
2019-03-12T21:55:03.473Z,21.70
2019-03-12T21:57:30.231Z,21.60
2019-03-12T21:59:56.991Z,21.60
2019-03-12T22:02:24.088Z,21.60
2019-03-12T22:04:51.042Z,21.60
2019-03-12T22:07:17.862Z,21.60
2019-03-12T22:09:44.670Z,21.60
2019-03-12T22:12:11.370Z,21.60
2019-03-12T22:14:38.180Z,21.60
2019-03-12T22:17:04.990Z,21.60
2019-03-12T22:19:31.727Z,21.50
2019-03-12T22:22:10.139Z,21.60
2019-03-12T22:24:37.270Z,21.50
2019-03-12T22:27:04.092Z,21.50
2019-03-12T22:29:30.833Z,21.50
2019-03-12T22:31:57.576Z,21.50
2019-03-12T22:34:24.331Z,21.50
2019-03-12T22:36:51.092Z,21.50
2019-03-12T22:39:17.909Z,21.50
2019-03-12T22:41:45.224Z,21.50
2019-03-12T22:44:13.299Z,21.50
2019-03-12T22:46:40.180Z,21.50
2019-03-12T22:49:07.083Z,21.50
2019-03-12T22:51:34.776Z,21.50
2019-03-12T22:54:01.931Z,21.50
2019-03-12T22:56:28.973Z,21.50
2019-03-12T22:58:56.430Z,21.50
2019-03-12T23:01:23.445Z,21.50
2019-03-12T23:03:50.294Z,21.40
2019-03-12T23:06:17.080Z,21.40
2019-03-12T23:08:43.848Z,21.40
2019-03-12T23:11:10.598Z,21.40
2019-03-12T23:13:37.313Z,21.40
2019-03-12T23:16:04.174Z,21.40
2019-03-12T23:18:31.015Z,21.40
2019-03-12T23:20:57.762Z,21.40
2019-03-12T23:23:24.476Z,21.40
2019-03-12T23:25:51.348Z,21.40
2019-03-12T23:28:18.083Z,21.40
2019-03-12T23:30:44.862Z,21.40
2019-03-12T23:33:11.744Z,21.40
2019-03-12T23:35:38.511Z,21.40
2019-03-12T23:38:05.577Z,21.40
2019-03-12T23:40:32.491Z,21.40
2019-03-12T23:42:59.340Z,21.40
2019-03-12T23:45:26.088Z,21.40
2019-03-12T23:47:52.955Z,21.40
2019-03-12T23:50:20.026Z,21.40
2019-03-12T23:52:47.123Z,21.30
2019-03-12T23:55:15.465Z,21.30
2019-03-12T23:57:42.209Z,21.30
